createdAt,value
2023-04-26T00:01:57.571Z,99799.09
2023-04-26T00:07:00.544Z,99807.69
2023-04-26T00:12:02.874Z,99813.97
2023-04-26T00:17:04.656Z,99810.38
2023-04-26T00:22:06.609Z,99817.19
2023-04-26T00:27:10.371Z,99820.19
2023-04-26T00:32:12.082Z,99825.38
2023-04-26T00:37:13.862Z,99822.81
2023-04-26T00:42:15.507Z,99828.09
2023-04-26T00:47:17.721Z,99833.34
2023-04-26T00:52:19.515Z,99829.34
2023-04-26T00:57:22.168Z,99839.75
2023-04-26T01:02:24.168Z,99844.47
2023-04-26T01:07:26.054Z,99839.25
2023-04-26T01:12:29.131Z,99842.00
2023-04-26T01:17:31.074Z,99848.13
2023-04-26T01:22:33.520Z,99848.22
2023-04-26T01:27:36.162Z,99842.22
2023-04-26T01:32:37.942Z,99851.81
2023-04-26T01:37:39.635Z,99848.31
2023-04-26T01:42:41.435Z,99850.09
2023-04-26T01:47:43.264Z,99856.22
2023-04-26T01:52:45.053Z,99858.97
2023-04-26T01:57:46.718Z,99858.03
2023-04-26T02:02:48.448Z,99863.09
2023-04-26T02:07:51.162Z,99854.44
2023-04-26T02:12:52.832Z,99866.63
2023-04-26T02:17:55.553Z,99869.28
2023-04-26T02:22:57.285Z,99861.38
2023-04-26T02:27:59.001Z,99867.44
2023-04-26T02:33:00.662Z,99865.78
2023-04-26T02:38:04.582Z,99865.03
2023-04-26T02:43:06.425Z,99864.97
2023-04-26T02:48:08.184Z,99863.88
2023-04-26T02:53:09.924Z,99857.13
2023-04-26T02:58:11.674Z,99864.94
2023-04-26T03:03:14.603Z,99874.63
2023-04-26T03:08:16.797Z,99868.34
2023-04-26T03:13:18.466Z,99875.47
2023-04-26T03:18:20.330Z,99872.78
2023-04-26T03:23:24.398Z,99878.94
2023-04-26T03:28:27.531Z,99881.69
2023-04-26T03:33:30.674Z,99887.78
2023-04-26T03:38:32.382Z,99879.97
2023-04-26T03:43:34.332Z,99878.31
2023-04-26T03:48:36.195Z,99884.53
2023-04-26T03:53:38.011Z,99898.34
2023-04-26T03:58:40.653Z,99899.28
2023-04-26T04:03:42.561Z,99894.09
2023-04-26T04:08:44.667Z,99904.50
2023-04-26T04:13:46.596Z,99908.03
2023-04-26T04:18:48.372Z,99905.50
2023-04-26T04:23:50.327Z,99904.66
2023-04-26T04:28:53.697Z,99909.00
2023-04-26T04:33:55.892Z,99908.97
2023-04-26T04:38:58.206Z,99914.16
2023-04-26T04:44:01.694Z,99916.63
2023-04-26T04:49:04.194Z,99918.47
2023-04-26T04:54:17.489Z,99928.78
2023-04-26T04:59:21.516Z,99928.78
2023-04-26T05:04:23.944Z,99937.47
2023-04-26T05:09:26.745Z,99937.38
2023-04-26T05:14:30.007Z,99943.44
2023-04-26T05:19:32.015Z,99943.16
2023-04-26T05:24:33.779Z,99946.59
2023-04-26T05:29:35.579Z,99944.63
2023-04-26T05:34:42.668Z,99952.50
2023-04-26T05:39:50.930Z,99956.44
2023-04-26T05:44:58.164Z,99963.28
2023-04-26T05:50:00.081Z,99971.25
2023-04-26T05:55:04.275Z,99976.84
2023-04-26T06:00:06.721Z,99982.56
2023-04-26T06:05:15.731Z,99986.91
2023-04-26T06:10:18.338Z,99982.34
2023-04-26T06:15:20.188Z,99988.81
2023-04-26T06:20:22.235Z,99985.41
2023-04-26T06:25:24.063Z,99995.06
2023-04-26T06:30:26.084Z,99988.28
2023-04-26T06:35:28.492Z,99991.78
2023-04-26T06:40:30.368Z,99993.38
2023-04-26T06:45:32.418Z,99991.19
2023-04-26T06:50:40.083Z,99996.41
2023-04-26T06:55:41.796Z,99995.72
2023-04-26T07:00:43.483Z,100004.56
2023-04-26T07:05:45.219Z,100015.31
2023-04-26T07:10:47.286Z,100010.34
2023-04-26T07:15:49.095Z,100002.69
2023-04-26T07:20:54.791Z,100011.19
2023-04-26T07:25:57.892Z,100017.78
2023-04-26T07:31:01.268Z,100016.22
2023-04-26T07:36:03.124Z,100014.75
2023-04-26T07:41:05.038Z,100009.38
2023-04-26T07:46:06.823Z,100010.81
2023-04-26T07:51:10.933Z,100015.28
2023-04-26T07:56:12.671Z,100008.72
2023-04-26T08:01:15.701Z,100007.66
2023-04-26T08:06:18.777Z,100013.16
2023-04-26T08:11:20.679Z,100004.28
2023-04-26T08:16:22.511Z,100013.06
2023-04-26T08:21:24.432Z,100005.56
2023-04-26T08:26:26.332Z,100021.31
2023-04-26T08:31:28.043Z,100018.28
2023-04-26T08:36:29.804Z,100025.06
2023-04-26T08:41:42.480Z,100014.72
2023-04-26T08:46:53.584Z,100024.06
2023-04-26T08:51:57.768Z,100011.19
2023-04-26T08:57:00.218Z,100016.06
2023-04-26T09:02:05.766Z,100012.38
2023-04-26T09:07:08.418Z,100010.84
2023-04-26T09:12:10.074Z,100014.47
2023-04-26T09:17:27.079Z,100011.72
2023-04-26T09:22:28.626Z,100023.19
2023-04-26T09:27:37.154Z,100024.41
2023-04-26T09:32:50.128Z,100021.41
2023-04-26T09:37:59.095Z,100026.44
2023-04-26T09:43:13.979Z,100027.56
2023-04-26T09:48:22.528Z,100028.03
2023-04-26T09:53:28.751Z,100018.38
2023-04-26T09:58:30.547Z,100016.41
2023-04-26T10:03:34.914Z,100021.38
2023-04-26T10:08:38.071Z,100024.44
2023-04-26T10:13:41.558Z,100033.53
2023-04-26T10:18:43.287Z,100031.91
2023-04-26T10:23:45.709Z,100036.88
2023-04-26T10:28:47.341Z,100027.72
2023-04-26T10:34:18.448Z,100021.75
2023-04-26T10:39:25.159Z,100023.03
2023-04-26T10:44:40.071Z,100025.72
2023-04-26T10:49:47.010Z,100023.53
2023-04-26T10:54:53.338Z,100016.59
2023-04-26T11:00:10.710Z,100016.63
2023-04-26T11:05:37.632Z,100014.63
2023-04-26T11:10:39.414Z,100016.72
2023-04-26T11:15:41.109Z,100025.13
2023-04-26T11:20:44.745Z,100016.53
2023-04-26T11:25:46.790Z,100018.75
2023-04-26T11:30:49.995Z,100011.69
2023-04-26T11:35:55.933Z,100025.91
2023-04-26T11:40:58.894Z,100027.19
2023-04-26T11:46:03.951Z,100027.47
2023-04-26T11:51:07.486Z,100035.34
2023-04-26T11:56:20.309Z,100036.81
2023-04-26T12:01:29.428Z,100040.06
2023-04-26T12:06:32.938Z,100043.09
2023-04-26T12:11:34.871Z,100033.03
2023-04-26T12:16:37.320Z,100052.75
2023-04-26T12:21:43.062Z,100041.34
2023-04-26T12:26:45.035Z,100043.97
2023-04-26T12:31:47.191Z,100041.22
2023-04-26T12:36:49.053Z,100037.13
2023-04-26T12:41:51.129Z,100035.63
2023-04-26T12:46:52.826Z,100028.44
2023-04-26T12:51:54.635Z,100040.56
2023-04-26T12:56:56.413Z,100030.38
2023-04-26T13:01:58.245Z,100043.16
2023-04-26T13:07:00.023Z,100038.63
2023-04-26T13:12:01.762Z,100030.25
2023-04-26T13:17:04.734Z,100036.69
2023-04-26T13:22:08.297Z,100018.69
2023-04-26T13:27:10.110Z,100027.69
2023-04-26T13:32:11.980Z,100037.78
2023-04-26T13:37:13.946Z,100026.63
2023-04-26T13:42:16.709Z,100029.97
2023-04-26T13:47:18.489Z,100041.59
2023-04-26T13:52:20.222Z,100037.06
2023-04-26T13:57:21.932Z,100040.31
2023-04-26T14:02:24.608Z,100037.44
2023-04-26T14:07:26.850Z,100031.97
2023-04-26T14:12:29.446Z,100040.25
2023-04-26T14:17:32.444Z,100042.19
2023-04-26T14:22:34.307Z,100039.81
2023-04-26T14:27:36.127Z,100042.88
2023-04-26T14:32:37.905Z,100051.09
2023-04-26T14:37:39.728Z,100052.06
2023-04-26T14:42:46.216Z,100045.03
2023-04-26T14:47:48.176Z,100049.00
2023-04-26T14:52:49.923Z,100050.59
2023-04-26T14:57:52.412Z,100060.22
2023-04-26T15:02:54.293Z,100054.56
2023-04-26T15:07:57.098Z,100053.56
2023-04-26T15:12:58.778Z,100042.44
2023-04-26T15:18:00.933Z,100049.72
2023-04-26T15:23:02.702Z,100051.28
2023-04-26T15:28:04.698Z,100056.47
2023-04-26T15:33:07.766Z,100054.69
2023-04-26T15:38:09.544Z,100047.06
2023-04-26T15:43:11.639Z,100058.06
2023-04-26T15:48:13.403Z,100050.06
2023-04-26T15:53:15.178Z,100057.75
2023-04-26T15:58:17.169Z,100063.25
2023-04-26T16:03:19.275Z,100061.81
2023-04-26T16:08:39.597Z,100053.63
2023-04-26T16:13:42.219Z,100054.22
2023-04-26T16:18:44.469Z,100054.44
2023-04-26T16:23:46.425Z,100059.84
2023-04-26T16:28:49.453Z,100056.47
2023-04-26T16:33:51.406Z,100056.47
2023-04-26T16:38:54.400Z,100062.00
2023-04-26T16:43:56.131Z,100058.69
2023-04-26T16:48:57.766Z,100063.59
2023-04-26T16:53:59.458Z,100060.63
2023-04-26T16:59:01.234Z,100063.22
2023-04-26T17:04:03.540Z,100069.97
2023-04-26T17:09:05.752Z,100074.19
2023-04-26T17:14:07.435Z,100073.41
2023-04-26T17:19:09.200Z,100070.88
2023-04-26T17:24:11.003Z,100077.66
2023-04-26T17:29:12.739Z,100087.16
2023-04-26T17:34:14.391Z,100087.63
2023-04-26T17:39:17.475Z,100090.09
2023-04-26T17:44:19.258Z,100089.22
2023-04-26T17:49:22.515Z,100094.13
2023-04-26T17:54:24.281Z,100099.53
2023-04-26T17:59:26.255Z,100097.09
2023-04-26T18:04:28.114Z,100093.69
2023-04-26T18:09:30.535Z,100103.31
2023-04-26T18:14:32.238Z,100106.19
2023-04-26T18:19:34.073Z,100109.81
2023-04-26T18:24:35.920Z,100107.34
2023-04-26T18:29:37.672Z,100110.75
2023-04-26T18:34:39.981Z,100122.28
2023-04-26T18:39:41.809Z,100118.97
2023-04-26T18:44:43.525Z,100122.72
2023-04-26T18:49:45.226Z,100131.44
2023-04-26T18:54:46.915Z,100125.47
2023-04-26T18:59:49.395Z,100120.88
2023-04-26T19:04:51.165Z,100136.00
2023-04-26T19:09:56.998Z,100136.47
2023-04-26T19:15:00.824Z,100146.25
2023-04-26T19:20:07.167Z,100142.03
2023-04-26T19:25:09.828Z,100144.50
2023-04-26T19:30:12.207Z,100147.47
2023-04-26T19:35:14.010Z,100146.41
2023-04-26T19:40:15.832Z,100150.72
2023-04-26T19:45:20.439Z,100151.88
2023-04-26T19:50:22.086Z,100161.53
2023-04-26T19:55:23.932Z,100161.38
2023-04-26T20:00:26.014Z,100154.19
2023-04-26T20:05:28.349Z,100157.16
2023-04-26T20:10:32.112Z,100160.66
2023-04-26T20:15:34.235Z,100163.44
2023-04-26T20:20:35.867Z,100158.88
2023-04-26T20:25:37.641Z,100161.56
2023-04-26T20:30:39.327Z,100157.75
2023-04-26T20:35:41.331Z,100160.34
2023-04-26T20:40:43.220Z,100151.06
2023-04-26T20:45:44.943Z,100147.94
2023-04-26T20:50:46.605Z,100146.31
2023-04-26T20:55:48.308Z,100142.84
2023-04-26T21:00:55.296Z,100139.03
2023-04-26T21:05:57.025Z,100145.31
2023-04-26T21:10:58.863Z,100151.59
2023-04-26T21:16:00.552Z,100154.13
2023-04-26T21:21:02.298Z,100155.94
2023-04-26T21:26:04.059Z,100159.34
2023-04-26T21:31:07.416Z,100164.59
2023-04-26T21:36:09.357Z,100163.66
2023-04-26T21:41:11.196Z,100169.94
2023-04-26T21:46:12.893Z,100173.31
2023-04-26T21:51:14.642Z,100176.72
2023-04-26T21:56:16.540Z,100183.78
2023-04-26T22:01:21.206Z,100184.78
2023-04-26T22:06:22.964Z,100184.84
2023-04-26T22:11:24.618Z,100192.00
2023-04-26T22:16:26.345Z,100192.16
2023-04-26T22:21:28.482Z,100195.69
2023-04-26T22:26:30.358Z,100200.94
2023-04-26T22:31:32.067Z,100194.91
2023-04-26T22:36:33.770Z,100212.28
2023-04-26T22:41:35.514Z,100206.25
2023-04-26T22:46:37.178Z,100209.75
2023-04-26T22:51:38.855Z,100218.41
2023-04-26T22:56:40.548Z,100226.25
2023-04-26T23:01:42.378Z,100228.84
2023-04-26T23:06:44.182Z,100229.75
2023-04-26T23:11:46.233Z,100229.75
2023-04-26T23:16:47.902Z,100226.25
2023-04-26T23:21:49.757Z,100232.34
2023-04-26T23:26:51.458Z,100227.97
2023-04-26T23:31:53.406Z,100228.00
2023-04-26T23:36:55.155Z,100231.50
2023-04-26T23:41:57.562Z,100229.75
2023-04-26T23:46:59.300Z,100227.16
2023-04-26T23:52:00.935Z,100217.59
2023-04-26T23:57:04.082Z,100223.66
